Blaafjell — LM6469 — position and weather

sailwx.info

Track history (hours):
 
Tides and Currents Weather Stations Pressure Air Temp Water Temp Dewpoint Dewpoint Depression Visibility Wind Speed Wind Dir Waves Ship Positions

Blaafjell

Last reported at 2017-Nov-16 09:05 UTC. Time now 2017-Dec-17 19:58 UTC.
Position N 71°08' E 026°10'.
Warning: this ship's position is 31 days out of date.

Length 11 m.

Type: Fishing. MMSI: 257337120.

Date/timePositionNaut miles runAvg speedWind from/ knotsBaromVisibWave heightAir tempDewpointWater temp
2017-Nov-16 09:05N 71°08' E 026°10'0 0.5
2017-Nov-16 08:59N 71°08' E 026°10'0 0.2
2017-Nov-16 08:30N 71°08' E 026°10'1 2.6
2017-Nov-16 07:59N 71°09' E 026°06'2 4.2
2017-Nov-16 07:29N 71°09' E 026°00'0 0.6
2017-Nov-16 07:00N 71°10' E 026°01'0 0.2
2017-Nov-16 06:29N 71°10' E 026°01'0 0.0
2017-Nov-16 06:00N 71°10' E 026°01'0 0.3
2017-Nov-16 05:30N 71°10' E 026°01'3 5.3
2017-Nov-16 05:00N 71°08' E 025°54'2 3.6
2017-Nov-16 04:28N 71°07' E 025°50'0 0.0
2017-Nov-16 03:58N 71°07' E 025°50'0 0.0
2017-Nov-16 03:28N 71°07' E 025°50'0 0.0
2017-Nov-16 02:58N 71°07' E 025°50'0 0.0
2017-Nov-16 02:28N 71°07' E 025°50'0 0.0
2017-Nov-16 01:58N 71°07' E 025°50'0 0.0
2017-Nov-16 01:28N 71°07' E 025°50'0 0.0
2017-Nov-16 00:58N 71°07' E 025°50'0 0.0
2017-Nov-16 00:28N 71°07' E 025°50'0 0.0
2017-Nov-15 23:58N 71°07' E 025°50'0 0.0
2017-Nov-15 23:28N 71°07' E 025°50'0 0.0
2017-Nov-15 22:58N 71°07' E 025°50'0 0.0
2017-Nov-15 22:28N 71°07' E 025°50'0 0.0
2017-Nov-15 21:58N 71°07' E 025°50'0 0.0
2017-Nov-15 21:28N 71°07' E 025°50'0 0.0
2017-Nov-15 20:58N 71°07' E 025°50'0 0.0
2017-Nov-15 20:25N 71°07' E 025°50'0 0.0
2017-Nov-15 19:58N 71°07' E 025°50'0 0.0
2017-Nov-15 19:28N 71°07' E 025°50'0 0.0
2017-Nov-15 18:58N 71°07' E 025°50'0 0.0
2017-Nov-15 18:28N 71°07' E 025°50'0 0.0
2017-Nov-15 17:55N 71°07' E 025°50'0 0.0
2017-Nov-15 17:28N 71°07' E 025°50'0 0.0
2017-Nov-15 16:58N 71°07' E 025°50'0 0.0
2017-Nov-15 16:28N 71°07' E 025°50'0 0.0
2017-Nov-15 15:58N 71°07' E 025°50'0 0.0
2017-Nov-15 15:28N 71°07' E 025°50'0 0.0
2017-Nov-15 14:58N 71°07' E 025°50'0 0.2
2017-Nov-15 14:30N 71°07' E 025°50'3 6.4
2017-Nov-15 13:59N 71°09' E 025°58'3 6.7
2017-Nov-15 13:29N 71°08' E 026°08'1 1.7
2017-Nov-15 12:59N 71°08' E 026°11'0 0.3
2017-Nov-15 12:30N 71°08' E 026°11'0 0.4
2017-Nov-15 12:00N 71°08' E 026°11'0 0.4
2017-Nov-15 11:30N 71°08' E 026°12'0 0.1
2017-Nov-15 11:00N 71°08' E 026°11'0 0.2
2017-Nov-15 10:29N 71°08' E 026°11'0 0.2
2017-Nov-15 10:00N 71°08' E 026°11'0 0.2
2017-Nov-15 09:30N 71°08' E 026°11'0 0.2
2017-Nov-15 08:59N 71°08' E 026°11'0 0.8
2017-Nov-15 08:30N 71°09' E 026°10'3 6.9
2017-Nov-15 08:00N 71°06' E 026°03'4 7.1
2017-Nov-15 07:28N 71°03' E 025°55'1 1.3
2017-Nov-15 06:55N 71°03' E 025°54'3 6.2
2017-Nov-15 06:31N 71°05' E 025°59'3 6.3
2017-Nov-15 06:00N 71°07' E 026°03'3 5.6
2017-Nov-15 05:30N 71°08' E 025°54'2 3.5
2017-Nov-15 04:59N 71°07' E 025°50'0 0.3
2017-Nov-15 04:26N 71°07' E 025°50'0 0.0
2017-Nov-15 03:59N 71°07' E 025°50'0 0.0
2017-Nov-15 03:29N 71°07' E 025°50'0 0.0
2017-Nov-15 02:59N 71°07' E 025°50'0 0.0
2017-Nov-15 02:29N 71°07' E 025°50'0 0.0
2017-Nov-15 01:59N 71°07' E 025°50'0 0.0
2017-Nov-15 01:26N 71°07' E 025°50'0 0.0
2017-Nov-15 00:59N 71°07' E 025°50'0 0.0
2017-Nov-15 00:29N 71°07' E 025°50'0 0.0
2017-Nov-14 23:59N 71°07' E 025°50'0 0.0
2017-Nov-14 23:29N 71°07' E 025°50'0 0.0
2017-Nov-14 22:59N 71°07' E 025°50'0 0.0
2017-Nov-14 22:29N 71°07' E 025°50'0 0.0
2017-Nov-14 21:59N 71°07' E 025°50'0 0.0
2017-Nov-14 21:29N 71°07' E 025°50'0 0.0
2017-Nov-14 20:59N 71°07' E 025°50'0 0.0
2017-Nov-14 20:29N 71°07' E 025°50'0 0.0
2017-Nov-14 19:59N 71°07' E 025°50'0 0.0
2017-Nov-14 19:29N 71°07' E 025°50'0 0.0
2017-Nov-14 18:59N 71°07' E 025°50'0 0.0
2017-Nov-14 18:29N 71°07' E 025°50'0 0.0
2017-Nov-14 17:59N 71°07' E 025°50'0 0.0
2017-Nov-14 17:29N 71°07' E 025°50'3 6.8
2017-Nov-14 17:00N 71°09' E 025°58'4 7.3
2017-Nov-14 16:29N 71°08' E 026°09'2 3.4
2017-Nov-14 16:00N 71°06' E 026°08'3 6.4
2017-Nov-14 15:30N 71°05' E 026°00'3 2.8
2017-Nov-14 14:27N 71°03' E 025°54'0 0.0
2017-Nov-14 13:50N 71°03' E 025°54'1 4.0
2017-Nov-14 13:30N 71°04' E 025°57'4 7.2
2017-Nov-14 13:00N 71°06' E 026°04'3 6.8
2017-Nov-14 12:30N 71°09' E 026°12'0 0.1
2017-Nov-14 12:00N 71°09' E 026°12'0 0.2
2017-Nov-14 11:30N 71°09' E 026°12'0 0.2
2017-Nov-14 11:00N 71°09' E 026°12'0 0.1
2017-Nov-14 10:30N 71°09' E 026°12'0 0.1
2017-Nov-14 10:00N 71°09' E 026°12'0 0.1
2017-Nov-14 09:29N 71°09' E 026°12'1 1.6
2017-Nov-14 09:00N 71°08' E 026°10'1 1.7
2017-Nov-14 08:30N 71°09' E 026°12'0 0.4
2017-Nov-14 08:00N 71°08' E 026°12'0 0.5
2017-Nov-14 07:30N 71°09' E 026°12'1 2.4
2017-Nov-14 07:00N 71°08' E 026°09'2 4.8
2017-Nov-14 06:30N 71°10' E 026°02'0 0.2
2017-Nov-14 06:00N 71°10' E 026°02'0 0.1
2017-Nov-14 05:30N 71°10' E 026°02'0 0.4
2017-Nov-14 05:00N 71°09' E 026°01'4 6.9
2017-Nov-14 04:30N 71°07' E 025°52'1 2.1
2017-Nov-14 04:00N 71°07' E 025°50'0 0.0
2017-Nov-14 03:30N 71°07' E 025°50'0 0.0
2017-Nov-14 03:00N 71°07' E 025°50'0 0.0
2017-Nov-14 02:27N 71°07' E 025°50'0 0.0
2017-Nov-14 02:00N 71°07' E 025°50'0 0.0
2017-Nov-14 01:30N 71°07' E 025°50'0 0.0
2017-Nov-14 01:00N 71°07' E 025°50'0 0.0
2017-Nov-14 00:30N 71°07' E 025°50'0 0.0
2017-Nov-13 23:57N 71°07' E 025°50'0 0.0
2017-Nov-13 23:30N 71°07' E 025°50'0 0.0
2017-Nov-13 23:00N 71°07' E 025°50'0 0.0
2017-Nov-13 22:30N 71°07' E 025°50'0 0.0
2017-Nov-13 22:00N 71°07' E 025°50'0 0.0
2017-Nov-13 01:58N 71°07' E 025°50'0 0.0
2017-Nov-13 01:28N 71°07' E 025°50'0 0.0
2017-Nov-13 00:58N 71°07' E 025°50'0 0.0
2017-Nov-13 00:28N 71°07' E 025°50'0 0.0
2017-Nov-12 23:58N 71°07' E 025°50'0 0.0
2017-Nov-12 23:28N 71°07' E 025°50'0 0.0
2017-Nov-12 22:58N 71°07' E 025°50'0 0.0
2017-Nov-12 22:28N 71°07' E 025°50'0 0.0
2017-Nov-12 21:58N 71°07' E 025°50'0 0.0
2017-Nov-12 21:28N 71°07' E 025°50'0 0.0
2017-Nov-12 20:58N 71°07' E 025°50'0 0.0
2017-Nov-12 20:28N 71°07' E 025°50'0 0.0
2017-Nov-12 19:58N 71°07' E 025°50'0 0.0
2017-Nov-12 19:28N 71°07' E 025°50'0 0.0
2017-Nov-12 18:58N 71°07' E 025°50'0 0.0
2017-Nov-12 18:28N 71°07' E 025°50'0 0.0
2017-Nov-12 17:58N 71°07' E 025°50'0 0.0
2017-Nov-12 17:28N 71°07' E 025°50'0 0.0
2017-Nov-12 16:58N 71°07' E 025°50'0 0.0
2017-Nov-12 16:28N 71°07' E 025°50'0 0.0
2017-Nov-12 15:58N 71°07' E 025°50'1 3.0
2017-Nov-12 15:30N 71°08' E 025°53'3 6.3
2017-Nov-12 14:59N 71°09' E 026°01'1 1.9
2017-Nov-12 14:30N 71°09' E 026°04'0 0.4
2017-Nov-12 14:00N 71°09' E 026°04'0 0.5
2017-Nov-12 13:30N 71°09' E 026°03'0 0.2
2017-Nov-12 13:00N 71°09' E 026°03'2 4.8
2017-Nov-12 12:30N 71°08' E 026°09'1 1.5
2017-Nov-12 12:00N 71°08' E 026°11'1 1.1
2017-Nov-12 11:30N 71°08' E 026°10'0 0.6
2017-Nov-12 11:00N 71°08' E 026°11'0 0.3
2017-Nov-12 10:30N 71°08' E 026°10'0 0.7
2017-Nov-12 10:00N 71°08' E 026°11'0 0.3
2017-Nov-12 09:30N 71°08' E 026°11'0 0.4
2017-Nov-12 09:00N 71°08' E 026°11'1 2.2
2017-Nov-12 08:30N 71°08' E 026°08'4 6.8
2017-Nov-12 07:59N 71°10' E 025°58'1 2.3
2017-Nov-12 07:30N 71°10' E 025°55'2 4.4
2017-Nov-12 07:00N 71°08' E 025°53'2 3.8
2017-Nov-12 06:28N 71°07' E 025°50'0 0.0
2017-Nov-12 05:58N 71°07' E 025°50'0 0.0
2017-Nov-12 05:28N 71°07' E 025°50'0 0.0
2017-Nov-12 04:58N 71°07' E 025°50'0 0.0
2017-Nov-12 04:25N 71°07' E 025°50'0 0.0
2017-Nov-12 03:55N 71°07' E 025°50'0 0.0
2017-Nov-12 03:28N 71°07' E 025°50'0 0.0
2017-Nov-12 02:58N 71°07' E 025°50'0 0.0
2017-Nov-12 02:25N 71°07' E 025°50'0 0.0
2017-Nov-12 01:58N 71°07' E 025°50'0 0.0
2017-Nov-12 01:28N 71°07' E 025°50'0 0.0
2017-Nov-12 00:58N 71°07' E 025°50'0 0.0
2017-Nov-12 00:22N 71°07' E 025°50'0 0.0
2017-Nov-11 23:58N 71°07' E 025°50'0 0.0
2017-Nov-11 23:16N 71°07' E 025°50'0 0.0
2017-Nov-11 22:58N 71°07' E 025°50'0 0.0
2017-Nov-11 22:28N 71°07' E 025°50'0 0.0
2017-Nov-11 21:58N 71°07' E 025°50'0 0.0
2017-Nov-11 21:22N 71°07' E 025°50'0 0.0
2017-Nov-11 20:58N 71°07' E 025°50'0 0.0
2017-Nov-11 20:28N 71°07' E 025°50'0 0.0
2017-Nov-11 19:58N 71°07' E 025°50'0 0.0
2017-Nov-11 19:28N 71°07' E 025°50'0 0.0
2017-Nov-11 18:58N 71°07' E 025°50'0 0.0
2017-Nov-11 18:28N 71°07' E 025°50'0 0.0
2017-Nov-11 17:58N 71°07' E 025°50'0 0.0
2017-Nov-11 17:28N 71°07' E 025°50'0 0.0
2017-Nov-11 16:58N 71°07' E 025°50'0 0.0
2017-Nov-11 16:28N 71°07' E 025°50'0 0.0
2017-Nov-11 15:58N 71°07' E 025°50'0 0.0
2017-Nov-11 15:28N 71°07' E 025°50'0 0.0
2017-Nov-11 14:58N 71°07' E 025°50'2 5.3
2017-Nov-11 14:30N 71°09' E 025°55'3 5.4
2017-Nov-11 14:00N 71°10' E 026°02'3 5.1
2017-Nov-11 13:30N 71°11' E 025°55'0 0.8
2017-Nov-11 13:00N 71°11' E 025°54'0 0.5
2017-Nov-11 12:30N 71°11' E 025°53'0 0.2
2017-Nov-11 11:59N 71°11' E 025°53'0 0.1
2017-Nov-11 11:30N 71°11' E 025°53'0 0.9
2017-Nov-11 11:01N 71°11' E 025°54'0 0.6
2017-Nov-11 10:30N 71°10' E 025°55'1 2.0
2017-Nov-11 10:00N 71°10' E 025°58'2 3.6
2017-Nov-11 09:30N 71°09' E 026°03'2 4.9
2017-Nov-11 09:00N 71°08' E 026°09'1 2.2
2017-Nov-11 08:30N 71°08' E 026°12'3 5.8
2017-Nov-11 08:00N 71°06' E 026°04'4 7.2
2017-Nov-11 07:29N 71°03' E 025°56'1 0.7
2017-Nov-11 05:54N 71°03' E 025°54'2 6.0
2017-Nov-11 05:29N 71°04' E 025°59'3 6.3
2017-Nov-11 05:00N 71°07' E 026°03'4 7.0
2017-Nov-11 04:29N 71°10' E 025°59'1 1.4
2017-Nov-11 04:00N 71°11' E 025°60'1 1.2
2017-Nov-11 03:30N 71°11' E 025°58'1 1.6
2017-Nov-11 02:59N 71°11' E 025°55'1 1.2
2017-Nov-11 02:30N 71°11' E 025°53'1 1.1
2017-Nov-11 01:59N 71°11' E 025°52'0 0.2
2017-Nov-11 01:30N 71°11' E 025°52'0 0.2
2017-Nov-11 00:59N 71°11' E 025°52'1 2.9
2017-Nov-11 00:30N 71°10' E 025°53'3 6.1
2017-Nov-11 00:00N 71°07' E 025°50'0 0.0
2017-Nov-10 23:28N 71°07' E 025°50'0 0.0
2017-Nov-10 23:01N 71°07' E 025°50'0 0.0
2017-Nov-10 22:28N 71°07' E 025°50'0 0.0
2017-Nov-10 21:58N 71°07' E 025°50'0 0.0
2017-Nov-10 21:28N 71°07' E 025°50'0 0.0
2017-Nov-10 21:01N 71°07' E 025°50'0 0.0
2017-Nov-10 20:31N 71°07' E 025°50'0 0.0
2017-Nov-10 19:58N 71°07' E 025°50'0 0.0
2017-Nov-10 19:28N 71°07' E 025°50'0 0.0
2017-Nov-10 18:52N 71°07' E 025°50'0 0.0
2017-Nov-10 18:28N 71°07' E 025°50'0 0.0
2017-Nov-10 17:58N 71°07' E 025°50'0 0.0
2017-Nov-10 17:28N 71°07' E 025°50'0 0.0
2017-Nov-10 16:58N 71°07' E 025°50'0 0.0
2017-Nov-10 16:28N 71°07' E 025°50'0 0.0
2017-Nov-10 15:58N 71°07' E 025°50'0 0.0
2017-Nov-10 15:28N 71°07' E 025°50'0 0.0
2017-Nov-10 14:58N 71°07' E 025°50'0 0.0
2017-Nov-10 14:22N 71°07' E 025°50'0 0.0
2017-Nov-10 13:58N 71°07' E 025°50'0 0.0
2017-Nov-10 13:28N 71°07' E 025°50'0 0.0
2017-Nov-10 12:58N 71°07' E 025°50'0 0.0
2017-Nov-10 12:28N 71°07' E 025°50'0 0.0
2017-Nov-10 11:58N 71°07' E 025°50'2 4.4
2017-Nov-10 11:30N 71°08' E 025°53'2 4.3
2017-Nov-10 10:59N 71°11' E 025°54'1 1.2
2017-Nov-10 10:30N 71°11' E 025°52'1 1.2
2017-Nov-10 10:00N 71°11' E 025°54'0 0.4
2017-Nov-10 09:29N 71°11' E 025°54'0 0.7
2017-Nov-10 09:00N 71°11' E 025°53'3 5.9
2017-Nov-10 08:29N 71°08' E 025°53'1 2.4
2017-Nov-10 07:58N 71°07' E 025°50'0 0.0
2017-Nov-10 07:28N 71°07' E 025°50'0 0.0
2017-Nov-10 06:58N 71°07' E 025°50'0 0.0
2017-Nov-10 06:28N 71°07' E 025°50'0 0.0
2017-Nov-10 05:58N 71°07' E 025°50'0 0.0
2017-Nov-10 05:28N 71°07' E 025°50'0 0.0
2017-Nov-10 04:58N 71°07' E 025°50'0 0.0
2017-Nov-10 04:25N 71°07' E 025°50'0 0.0
2017-Nov-10 03:58N 71°07' E 025°50'0 0.0
2017-Nov-10 03:28N 71°07' E 025°50'0 0.0
2017-Nov-10 02:58N 71°07' E 025°50'0 0.0
2017-Nov-10 02:28N 71°07' E 025°50'0 0.0
2017-Nov-10 01:58N 71°07' E 025°50'0 0.0
2017-Nov-10 01:28N 71°07' E 025°50'0 0.0
2017-Nov-10 00:58N 71°07' E 025°50'0 0.0
2017-Nov-10 00:28N 71°07' E 025°50'0 0.0
2017-Nov-09 23:58N 71°07' E 025°50'0 0.0
2017-Nov-09 23:28N 71°07' E 025°50'0 0.0
2017-Nov-09 22:58N 71°07' E 025°50'0 0.0
2017-Nov-09 22:28N 71°07' E 025°50'0 0.0
2017-Nov-09 21:58N 71°07' E 025°50'0 0.0
2017-Nov-09 21:25N 71°07' E 025°50'0 0.0
2017-Nov-09 20:58N 71°07' E 025°50'0 0.0
2017-Nov-09 20:28N 71°07' E 025°50'0 0.0
2017-Nov-09 19:58N 71°07' E 025°50'0 0.0
2017-Nov-09 19:28N 71°07' E 025°50'0 0.0
2017-Nov-09 18:58N 71°07' E 025°50'0 0.0
2017-Nov-09 18:28N 71°07' E 025°50'0 0.0
2017-Nov-09 17:58N 71°07' E 025°50'0 0.0
2017-Nov-09 17:28N 71°07' E 025°50'0 0.0
2017-Nov-09 16:58N 71°07' E 025°50'0 0.0
2017-Nov-09 16:28N 71°07' E 025°50'0 0.0
2017-Nov-09 15:55N 71°07' E 025°50'0 0.0
2017-Nov-09 15:28N 71°07' E 025°50'0 0.0
2017-Nov-09 14:58N 71°07' E 025°50'1 2.2
2017-Nov-09 14:30N 71°07' E 025°52'3 6.1
2017-Nov-09 14:00N 71°09' E 026°01'3 6.0
2017-Nov-09 13:29N 71°05' E 026°01'4 7.1
2017-Nov-09 12:59N 71°03' E 025°54'0 0.0
2017-Nov-09 12:29N 71°03' E 025°54'3 7.0
2017-Nov-09 12:00N 71°05' E 026°01'3 6.1
2017-Nov-09 11:30N 71°08' E 026°01'4 7.1
2017-Nov-09 11:00N 71°11' E 025°53'0 0.8
2017-Nov-09 10:30N 71°11' E 025°52'2 4.2
2017-Nov-09 10:00N 71°11' E 025°58'2 4.3
2017-Nov-09 09:30N 71°10' E 026°04'0 0.6
2017-Nov-09 09:00N 71°10' E 026°03'0 0.3
2017-Nov-09 08:29N 71°09' E 026°03'0 0.1
2017-Nov-09 07:59N 71°09' E 026°03'0 0.3
2017-Nov-09 07:30N 71°09' E 026°02'0 0.3
2017-Nov-09 07:00N 71°10' E 026°03'2 3.9
2017-Nov-09 06:30N 71°10' E 025°57'2 3.3
2017-Nov-09 06:00N 71°11' E 025°52'3 6.5
2017-Nov-09 05:30N 71°07' E 025°52'1 2.0
2017-Nov-09 04:59N 71°07' E 025°50'0 0.0
2017-Nov-09 04:29N 71°07' E 025°50'0 0.0
2017-Nov-09 03:59N 71°07' E 025°50'0 0.0
2017-Nov-09 03:26N 71°07' E 025°50'0 0.0
2017-Nov-09 02:59N 71°07' E 025°50'0 0.0
2017-Nov-09 02:29N 71°07' E 025°50'0 0.0
2017-Nov-09 01:59N 71°07' E 025°50'0 0.0
2017-Nov-09 01:29N 71°07' E 025°50'0 0.0
2017-Nov-09 00:59N 71°07' E 025°50'0 0.0
2017-Nov-09 00:26N 71°07' E 025°50'0 0.0
2017-Nov-08 23:59N 71°07' E 025°50'0 0.0
2017-Nov-08 23:29N 71°07' E 025°50'0 0.0
2017-Nov-08 22:56N 71°07' E 025°50'0 0.0
2017-Nov-08 22:26N 71°07' E 025°50'0 0.0
2017-Nov-08 21:59N 71°07' E 025°50'0 0.0
2017-Nov-08 21:29N 71°07' E 025°50'0 0.0
2017-Nov-08 20:59N 71°07' E 025°50'0 0.0
2017-Nov-08 20:29N 71°07' E 025°50'0 0.0
2017-Nov-08 19:59N 71°07' E 025°50'0 0.0
2017-Nov-08 19:26N 71°07' E 025°50'0 0.0
2017-Nov-08 18:59N 71°07' E 025°50'0 0.0
2017-Nov-08 18:29N 71°07' E 025°50'0 0.0
2017-Nov-08 17:59N 71°07' E 025°50'0 0.0
2017-Nov-08 17:29N 71°07' E 025°50'0 0.0
2017-Nov-08 16:59N 71°07' E 025°50'0 0.0
2017-Nov-08 16:29N 71°07' E 025°50'0 0.0
2017-Nov-08 15:59N 71°07' E 025°50'0 0.0
2017-Nov-08 15:29N 71°07' E 025°50'0 0.0
2017-Nov-08 14:56N 71°07' E 025°50'0 0.0
2017-Nov-08 14:29N 71°07' E 025°50'0 0.0
2017-Nov-08 13:44N 71°07' E 025°50'0 0.0
2017-Nov-08 12:32N 71°07' E 025°50'0 0.0
2017-Nov-08 12:31N 71°07' E 025°50'3 6.4
2017-Nov-08 12:00N 71°09' E 025°57'1 2.2
2017-Nov-08 11:29N 71°09' E 026°00'3 4.6
2017-Nov-08 10:49N 71°11' E 025°52'1 0.3
2017-Nov-08 09:05N 71°11' E 025°53'0 0.4
2017-Nov-08 09:00N 71°11' E 025°53'0 0.3
2017-Nov-08 08:30N 71°11' E 025°54'0 0.2
2017-Nov-08 08:00N 71°11' E 025°54'0 0.1
2017-Nov-08 07:30N 71°11' E 025°54'3 5.0
2017-Nov-08 06:59N 71°08' E 025°53'2 3.5
2017-Nov-08 06:29N 71°07' E 025°50'0 0.0
2017-Nov-08 05:59N 71°07' E 025°50'0 0.0
2017-Nov-08 05:29N 71°07' E 025°50'0 0.0
2017-Nov-08 04:59N 71°07' E 025°50'0 0.0
2017-Nov-08 04:29N 71°07' E 025°50'0 0.0
2017-Nov-08 03:59N 71°07' E 025°50'0 0.0
2017-Nov-08 03:29N 71°07' E 025°50'0 0.0
2017-Nov-08 02:59N 71°07' E 025°50'0 0.0
2017-Nov-08 02:29N 71°07' E 025°50'0 0.0
2017-Nov-08 01:56N 71°07' E 025°50'0 0.0
2017-Nov-08 01:29N 71°07' E 025°50'0 0.0
2017-Nov-08 00:59N 71°07' E 025°50'0 0.0
2017-Nov-08 00:29N 71°07' E 025°50'1 0.6
2017-Nov-07 22:40N 71°07' E 025°52'1 7.2
2017-Nov-07 22:30N 71°09' E 025°53'2 4.1
2017-Nov-07 22:00N 71°11' E 025°53'2 4.8
2017-Nov-07 21:30N 71°10' E 026°00'1 2.0
2017-Nov-07 21:00N 71°09' E 026°02'0 0.2
2017-Nov-07 20:29N 71°09' E 026°02'0 0.0
2017-Nov-07 20:00N 71°09' E 026°02'0 0.2
2017-Nov-07 19:30N 71°09' E 026°02'2 3.1
2017-Nov-07 19:00N 71°09' E 025°58'3 6.3
2017-Nov-07 18:30N 71°07' E 025°50'0 0.0
2017-Nov-07 18:00N 71°07' E 025°50'0 0.0
2017-Nov-07 17:28N 71°07' E 025°50'0 0.2
2017-Nov-07 16:59N 71°07' E 025°50'0 0.0
2017-Nov-07 16:29N 71°07' E 025°50'0 0.0
2017-Nov-07 15:59N 71°07' E 025°50'0 0.0
2017-Nov-07 15:29N 71°07' E 025°50'0 0.0
2017-Nov-07 14:59N 71°07' E 025°50'0 0.0
2017-Nov-07 14:29N 71°07' E 025°50'0 0.0
2017-Nov-07 13:59N 71°07' E 025°50'0 0.0
2017-Nov-07 13:29N 71°07' E 025°50'0 0.0
2017-Nov-07 12:59N 71°07' E 025°50'0 0.0
2017-Nov-07 12:29N 71°07' E 025°50'0 0.0
2017-Nov-07 11:59N 71°07' E 025°50'0 0.0
2017-Nov-07 11:29N 71°07' E 025°50'0 0.0
2017-Nov-07 10:59N 71°07' E 025°50'0 0.0
2017-Nov-07 10:29N 71°07' E 025°50'0 0.0
2017-Nov-07 09:59N 71°07' E 025°50'0 0.0
2017-Nov-07 09:29N 71°07' E 025°50'0 0.0
2017-Nov-07 08:59N 71°07' E 025°50'0 0.0
2017-Nov-07 08:29N 71°07' E 025°50'0 0.0
2017-Nov-07 07:59N 71°07' E 025°50'0 0.0
2017-Nov-07 07:29N 71°07' E 025°50'0 0.0
2017-Nov-07 06:56N 71°07' E 025°50'0 0.0
2017-Nov-07 06:29N 71°07' E 025°50'0 0.0
2017-Nov-07 05:59N 71°07' E 025°50'0 0.0
2017-Nov-07 05:29N 71°07' E 025°50'0 0.0
2017-Nov-07 04:59N 71°07' E 025°50'0 0.0
2017-Nov-07 04:29N 71°07' E 025°50'0 0.0
2017-Nov-07 03:59N 71°07' E 025°50'0 0.0
2017-Nov-07 03:29N 71°07' E 025°50'0 0.0
2017-Nov-07 02:59N 71°07' E 025°50'0 0.0
2017-Nov-07 02:29N 71°07' E 025°50'0 0.0
2017-Nov-07 01:59N 71°07' E 025°50'0 0.0
2017-Nov-07 01:29N 71°07' E 025°50'0 0.0
2017-Nov-07 00:59N 71°07' E 025°50'0 0.0
2017-Nov-07 00:29N 71°07' E 025°50'0 0.0
2017-Nov-06 23:59N 71°07' E 025°50'0 0.0
2017-Nov-06 23:29N 71°07' E 025°50'0 0.0
2017-Nov-06 22:56N 71°07' E 025°50'0 0.0
2017-Nov-06 22:26N 71°07' E 025°50'0 0.0
2017-Nov-06 21:59N 71°07' E 025°50'0 0.0
2017-Nov-06 21:29N 71°07' E 025°50'0 0.0
2017-Nov-06 20:59N 71°07' E 025°50'0 0.0
2017-Nov-06 20:29N 71°07' E 025°50'  
Track history (hours):
 
Tides and Currents Weather Stations Pressure Air Temp Water Temp Dewpoint Dewpoint Depression Visibility Wind Speed Wind Dir Waves Ship Positions

Blaafjell

Last reported at 2017-Nov-16 09:05 UTC. Time now 2017-Dec-17 19:58 UTC.
Position N 71°08' E 026°10'.
Warning: this ship's position is 31 days out of date.

Length 11 m.

Type: Fishing. MMSI: 257337120.

Date/timePositionNaut miles runAvg speedWind from/ knotsBaromVisibWave heightAir tempDewpointWater temp
2017-Nov-16 09:05N 71°08' E 026°10'0 0.5
2017-Nov-16 08:59N 71°08' E 026°10'0 0.2
2017-Nov-16 08:30N 71°08' E 026°10'1 2.6
2017-Nov-16 07:59N 71°09' E 026°06'2 4.2
2017-Nov-16 07:29N 71°09' E 026°00'0 0.6
2017-Nov-16 07:00N 71°10' E 026°01'0 0.2
2017-Nov-16 06:29N 71°10' E 026°01'0 0.0
2017-Nov-16 06:00N 71°10' E 026°01'0 0.3
2017-Nov-16 05:30N 71°10' E 026°01'3 5.3
2017-Nov-16 05:00N 71°08' E 025°54'2 3.6
2017-Nov-16 04:28N 71°07' E 025°50'0 0.0
2017-Nov-16 03:58N 71°07' E 025°50'0 0.0
2017-Nov-16 03:28N 71°07' E 025°50'0 0.0
2017-Nov-16 02:58N 71°07' E 025°50'0 0.0
2017-Nov-16 02:28N 71°07' E 025°50'0 0.0
2017-Nov-16 01:58N 71°07' E 025°50'0 0.0
2017-Nov-16 01:28N 71°07' E 025°50'0 0.0
2017-Nov-16 00:58N 71°07' E 025°50'0 0.0
2017-Nov-16 00:28N 71°07' E 025°50'0 0.0
2017-Nov-15 23:58N 71°07' E 025°50'0 0.0
2017-Nov-15 23:28N 71°07' E 025°50'0 0.0
2017-Nov-15 22:58N 71°07' E 025°50'0 0.0
2017-Nov-15 22:28N 71°07' E 025°50'0 0.0
2017-Nov-15 21:58N 71°07' E 025°50'0 0.0
2017-Nov-15 21:28N 71°07' E 025°50'0 0.0
2017-Nov-15 20:58N 71°07' E 025°50'0 0.0
2017-Nov-15 20:25N 71°07' E 025°50'0 0.0
2017-Nov-15 19:58N 71°07' E 025°50'0 0.0
2017-Nov-15 19:28N 71°07' E 025°50'0 0.0
2017-Nov-15 18:58N 71°07' E 025°50'0 0.0
2017-Nov-15 18:28N 71°07' E 025°50'0 0.0
2017-Nov-15 17:55N 71°07' E 025°50'0 0.0
2017-Nov-15 17:28N 71°07' E 025°50'0 0.0
2017-Nov-15 16:58N 71°07' E 025°50'0 0.0
2017-Nov-15 16:28N 71°07' E 025°50'0 0.0
2017-Nov-15 15:58N 71°07' E 025°50'0 0.0
2017-Nov-15 15:28N 71°07' E 025°50'0 0.0
2017-Nov-15 14:58N 71°07' E 025°50'0 0.2
2017-Nov-15 14:30N 71°07' E 025°50'3 6.4
2017-Nov-15 13:59N 71°09' E 025°58'3 6.7
2017-Nov-15 13:29N 71°08' E 026°08'1 1.7
2017-Nov-15 12:59N 71°08' E 026°11'0 0.3
2017-Nov-15 12:30N 71°08' E 026°11'0 0.4
2017-Nov-15 12:00N 71°08' E 026°11'0 0.4
2017-Nov-15 11:30N 71°08' E 026°12'0 0.1
2017-Nov-15 11:00N 71°08' E 026°11'0 0.2
2017-Nov-15 10:29N 71°08' E 026°11'0 0.2
2017-Nov-15 10:00N 71°08' E 026°11'0 0.2
2017-Nov-15 09:30N 71°08' E 026°11'0 0.2
2017-Nov-15 08:59N 71°08' E 026°11'0 0.8
2017-Nov-15 08:30N 71°09' E 026°10'3 6.9
2017-Nov-15 08:00N 71°06' E 026°03'4 7.1
2017-Nov-15 07:28N 71°03' E 025°55'1 1.3
2017-Nov-15 06:55N 71°03' E 025°54'3 6.2
2017-Nov-15 06:31N 71°05' E 025°59'3 6.3
2017-Nov-15 06:00N 71°07' E 026°03'3 5.6
2017-Nov-15 05:30N 71°08' E 025°54'2 3.5
2017-Nov-15 04:59N 71°07' E 025°50'0 0.3
2017-Nov-15 04:26N 71°07' E 025°50'0 0.0
2017-Nov-15 03:59N 71°07' E 025°50'0 0.0
2017-Nov-15 03:29N 71°07' E 025°50'0 0.0
2017-Nov-15 02:59N 71°07' E 025°50'0 0.0
2017-Nov-15 02:29N 71°07' E 025°50'0 0.0
2017-Nov-15 01:59N 71°07' E 025°50'0 0.0
2017-Nov-15 01:26N 71°07' E 025°50'0 0.0
2017-Nov-15 00:59N 71°07' E 025°50'0 0.0
2017-Nov-15 00:29N 71°07' E 025°50'0 0.0
2017-Nov-14 23:59N 71°07' E 025°50'0 0.0
2017-Nov-14 23:29N 71°07' E 025°50'0 0.0
2017-Nov-14 22:59N 71°07' E 025°50'0 0.0
2017-Nov-14 22:29N 71°07' E 025°50'0 0.0
2017-Nov-14 21:59N 71°07' E 025°50'0 0.0
2017-Nov-14 21:29N 71°07' E 025°50'0 0.0
2017-Nov-14 20:59N 71°07' E 025°50'0 0.0
2017-Nov-14 20:29N 71°07' E 025°50'0 0.0
2017-Nov-14 19:59N 71°07' E 025°50'0 0.0
2017-Nov-14 19:29N 71°07' E 025°50'0 0.0
2017-Nov-14 18:59N 71°07' E 025°50'0 0.0
2017-Nov-14 18:29N 71°07' E 025°50'0 0.0
2017-Nov-14 17:59N 71°07' E 025°50'0 0.0
2017-Nov-14 17:29N 71°07' E 025°50'3 6.8
2017-Nov-14 17:00N 71°09' E 025°58'4 7.3
2017-Nov-14 16:29N 71°08' E 026°09'2 3.4
2017-Nov-14 16:00N 71°06' E 026°08'3 6.4
2017-Nov-14 15:30N 71°05' E 026°00'3 2.8
2017-Nov-14 14:27N 71°03' E 025°54'0 0.0
2017-Nov-14 13:50N 71°03' E 025°54'1 4.0
2017-Nov-14 13:30N 71°04' E 025°57'4 7.2
2017-Nov-14 13:00N 71°06' E 026°04'3 6.8
2017-Nov-14 12:30N 71°09' E 026°12'0 0.1
2017-Nov-14 12:00N 71°09' E 026°12'0 0.2
2017-Nov-14 11:30N 71°09' E 026°12'0 0.2
2017-Nov-14 11:00N 71°09' E 026°12'0 0.1
2017-Nov-14 10:30N 71°09' E 026°12'0 0.1
2017-Nov-14 10:00N 71°09' E 026°12'0 0.1
2017-Nov-14 09:29N 71°09' E 026°12'1 1.6
2017-Nov-14 09:00N 71°08' E 026°10'1 1.7
2017-Nov-14 08:30N 71°09' E 026°12'0 0.4
2017-Nov-14 08:00N 71°08' E 026°12'0 0.5
2017-Nov-14 07:30N 71°09' E 026°12'1 2.4
2017-Nov-14 07:00N 71°08' E 026°09'2 4.8
2017-Nov-14 06:30N 71°10' E 026°02'0 0.2
2017-Nov-14 06:00N 71°10' E 026°02'0 0.1
2017-Nov-14 05:30N 71°10' E 026°02'0 0.4
2017-Nov-14 05:00N 71°09' E 026°01'4 6.9
2017-Nov-14 04:30N 71°07' E 025°52'1 2.1
2017-Nov-14 04:00N 71°07' E 025°50'0 0.0
2017-Nov-14 03:30N 71°07' E 025°50'0 0.0
2017-Nov-14 03:00N 71°07' E 025°50'0 0.0
2017-Nov-14 02:27N 71°07' E 025°50'0 0.0
2017-Nov-14 02:00N 71°07' E 025°50'0 0.0
2017-Nov-14 01:30N 71°07' E 025°50'0 0.0
2017-Nov-14 01:00N 71°07' E 025°50'0 0.0
2017-Nov-14 00:30N 71°07' E 025°50'0 0.0
2017-Nov-13 23:57N 71°07' E 025°50'0 0.0
2017-Nov-13 23:30N 71°07' E 025°50'0 0.0
2017-Nov-13 23:00N 71°07' E 025°50'0 0.0
2017-Nov-13 22:30N 71°07' E 025°50'0 0.0
2017-Nov-13 22:00N 71°07' E 025°50'0 0.0
2017-Nov-13 01:58N 71°07' E 025°50'0 0.0
2017-Nov-13 01:28N 71°07' E 025°50'0 0.0
2017-Nov-13 00:58N 71°07' E 025°50'0 0.0
2017-Nov-13 00:28N 71°07' E 025°50'0 0.0
2017-Nov-12 23:58N 71°07' E 025°50'0 0.0
2017-Nov-12 23:28N 71°07' E 025°50'0 0.0
2017-Nov-12 22:58N 71°07' E 025°50'0 0.0
2017-Nov-12 22:28N 71°07' E 025°50'0 0.0
2017-Nov-12 21:58N 71°07' E 025°50'0 0.0
2017-Nov-12 21:28N 71°07' E 025°50'0 0.0
2017-Nov-12 20:58N 71°07' E 025°50'0 0.0
2017-Nov-12 20:28N 71°07' E 025°50'0 0.0
2017-Nov-12 19:58N 71°07' E 025°50'0 0.0
2017-Nov-12 19:28N 71°07' E 025°50'0 0.0
2017-Nov-12 18:58N 71°07' E 025°50'0 0.0
2017-Nov-12 18:28N 71°07' E 025°50'0 0.0
2017-Nov-12 17:58N 71°07' E 025°50'0 0.0
2017-Nov-12 17:28N 71°07' E 025°50'0 0.0
2017-Nov-12 16:58N 71°07' E 025°50'0 0.0
2017-Nov-12 16:28N 71°07' E 025°50'0 0.0
2017-Nov-12 15:58N 71°07' E 025°50'1 3.0
2017-Nov-12 15:30N 71°08' E 025°53'3 6.3
2017-Nov-12 14:59N 71°09' E 026°01'1 1.9
2017-Nov-12 14:30N 71°09' E 026°04'0 0.4
2017-Nov-12 14:00N 71°09' E 026°04'0 0.5
2017-Nov-12 13:30N 71°09' E 026°03'0 0.2
2017-Nov-12 13:00N 71°09' E 026°03'2 4.8
2017-Nov-12 12:30N 71°08' E 026°09'1 1.5
2017-Nov-12 12:00N 71°08' E 026°11'1 1.1
2017-Nov-12 11:30N 71°08' E 026°10'0 0.6
2017-Nov-12 11:00N 71°08' E 026°11'0 0.3
2017-Nov-12 10:30N 71°08' E 026°10'0 0.7
2017-Nov-12 10:00N 71°08' E 026°11'0 0.3
2017-Nov-12 09:30N 71°08' E 026°11'0 0.4
2017-Nov-12 09:00N 71°08' E 026°11'1 2.2
2017-Nov-12 08:30N 71°08' E 026°08'4 6.8
2017-Nov-12 07:59N 71°10' E 025°58'1 2.3
2017-Nov-12 07:30N 71°10' E 025°55'2 4.4
2017-Nov-12 07:00N 71°08' E 025°53'2 3.8
2017-Nov-12 06:28N 71°07' E 025°50'0 0.0
2017-Nov-12 05:58N 71°07' E 025°50'0 0.0
2017-Nov-12 05:28N 71°07' E 025°50'0 0.0
2017-Nov-12 04:58N 71°07' E 025°50'0 0.0
2017-Nov-12 04:25N 71°07' E 025°50'0 0.0
2017-Nov-12 03:55N 71°07' E 025°50'0 0.0
2017-Nov-12 03:28N 71°07' E 025°50'0 0.0
2017-Nov-12 02:58N 71°07' E 025°50'0 0.0
2017-Nov-12 02:25N 71°07' E 025°50'0 0.0
2017-Nov-12 01:58N 71°07' E 025°50'0 0.0
2017-Nov-12 01:28N 71°07' E 025°50'0 0.0
2017-Nov-12 00:58N 71°07' E 025°50'0 0.0
2017-Nov-12 00:22N 71°07' E 025°50'0 0.0
2017-Nov-11 23:58N 71°07' E 025°50'0 0.0
2017-Nov-11 23:16N 71°07' E 025°50'0 0.0
2017-Nov-11 22:58N 71°07' E 025°50'0 0.0
2017-Nov-11 22:28N 71°07' E 025°50'0 0.0
2017-Nov-11 21:58N 71°07' E 025°50'0 0.0
2017-Nov-11 21:22N 71°07' E 025°50'0 0.0
2017-Nov-11 20:58N 71°07' E 025°50'0 0.0
2017-Nov-11 20:28N 71°07' E 025°50'0 0.0
2017-Nov-11 19:58N 71°07' E 025°50'0 0.0
2017-Nov-11 19:28N 71°07' E 025°50'0 0.0
2017-Nov-11 18:58N 71°07' E 025°50'0 0.0
2017-Nov-11 18:28N 71°07' E 025°50'0 0.0
2017-Nov-11 17:58N 71°07' E 025°50'0 0.0
2017-Nov-11 17:28N 71°07' E 025°50'0 0.0
2017-Nov-11 16:58N 71°07' E 025°50'0 0.0
2017-Nov-11 16:28N 71°07' E 025°50'0 0.0
2017-Nov-11 15:58N 71°07' E 025°50'0 0.0
2017-Nov-11 15:28N 71°07' E 025°50'0 0.0
2017-Nov-11 14:58N 71°07' E 025°50'2 5.3
2017-Nov-11 14:30N 71°09' E 025°55'3 5.4
2017-Nov-11 14:00N 71°10' E 026°02'3 5.1
2017-Nov-11 13:30N 71°11' E 025°55'0 0.8
2017-Nov-11 13:00N 71°11' E 025°54'0 0.5
2017-Nov-11 12:30N 71°11' E 025°53'0 0.2
2017-Nov-11 11:59N 71°11' E 025°53'0 0.1
2017-Nov-11 11:30N 71°11' E 025°53'0 0.9
2017-Nov-11 11:01N 71°11' E 025°54'0 0.6
2017-Nov-11 10:30N 71°10' E 025°55'1 2.0
2017-Nov-11 10:00N 71°10' E 025°58'2 3.6
2017-Nov-11 09:30N 71°09' E 026°03'2 4.9
2017-Nov-11 09:00N 71°08' E 026°09'1 2.2
2017-Nov-11 08:30N 71°08' E 026°12'3 5.8
2017-Nov-11 08:00N 71°06' E 026°04'4 7.2
2017-Nov-11 07:29N 71°03' E 025°56'1 0.7
2017-Nov-11 05:54N 71°03' E 025°54'2 6.0
2017-Nov-11 05:29N 71°04' E 025°59'3 6.3
2017-Nov-11 05:00N 71°07' E 026°03'4 7.0
2017-Nov-11 04:29N 71°10' E 025°59'1 1.4
2017-Nov-11 04:00N 71°11' E 025°60'1 1.2
2017-Nov-11 03:30N 71°11' E 025°58'1 1.6
2017-Nov-11 02:59N 71°11' E 025°55'1 1.2
2017-Nov-11 02:30N 71°11' E 025°53'1 1.1
2017-Nov-11 01:59N 71°11' E 025°52'0 0.2
2017-Nov-11 01:30N 71°11' E 025°52'0 0.2
2017-Nov-11 00:59N 71°11' E 025°52'1 2.9
2017-Nov-11 00:30N 71°10' E 025°53'3 6.1
2017-Nov-11 00:00N 71°07' E 025°50'0 0.0
2017-Nov-10 23:28N 71°07' E 025°50'0 0.0
2017-Nov-10 23:01N 71°07' E 025°50'0 0.0
2017-Nov-10 22:28N 71°07' E 025°50'0 0.0
2017-Nov-10 21:58N 71°07' E 025°50'0 0.0
2017-Nov-10 21:28N 71°07' E 025°50'0 0.0
2017-Nov-10 21:01N 71°07' E 025°50'0 0.0
2017-Nov-10 20:31N 71°07' E 025°50'0 0.0
2017-Nov-10 19:58N 71°07' E 025°50'0 0.0
2017-Nov-10 19:28N 71°07' E 025°50'0 0.0
2017-Nov-10 18:52N 71°07' E 025°50'0 0.0
2017-Nov-10 18:28N 71°07' E 025°50'0 0.0
2017-Nov-10 17:58N 71°07' E 025°50'0 0.0
2017-Nov-10 17:28N 71°07' E 025°50'0 0.0
2017-Nov-10 16:58N 71°07' E 025°50'0 0.0
2017-Nov-10 16:28N 71°07' E 025°50'0 0.0
2017-Nov-10 15:58N 71°07' E 025°50'0 0.0
2017-Nov-10 15:28N 71°07' E 025°50'0 0.0
2017-Nov-10 14:58N 71°07' E 025°50'0 0.0
2017-Nov-10 14:22N 71°07' E 025°50'0 0.0
2017-Nov-10 13:58N 71°07' E 025°50'0 0.0
2017-Nov-10 13:28N 71°07' E 025°50'0 0.0
2017-Nov-10 12:58N 71°07' E 025°50'0 0.0
2017-Nov-10 12:28N 71°07' E 025°50'0 0.0
2017-Nov-10 11:58N 71°07' E 025°50'2 4.4
2017-Nov-10 11:30N 71°08' E 025°53'2 4.3
2017-Nov-10 10:59N 71°11' E 025°54'1 1.2
2017-Nov-10 10:30N 71°11' E 025°52'1 1.2
2017-Nov-10 10:00N 71°11' E 025°54'0 0.4
2017-Nov-10 09:29N 71°11' E 025°54'0 0.7
2017-Nov-10 09:00N 71°11' E 025°53'3 5.9
2017-Nov-10 08:29N 71°08' E 025°53'1 2.4
2017-Nov-10 07:58N 71°07' E 025°50'0 0.0
2017-Nov-10 07:28N 71°07' E 025°50'0 0.0
2017-Nov-10 06:58N 71°07' E 025°50'0 0.0
2017-Nov-10 06:28N 71°07' E 025°50'0 0.0
2017-Nov-10 05:58N 71°07' E 025°50'0 0.0
2017-Nov-10 05:28N 71°07' E 025°50'0 0.0
2017-Nov-10 04:58N 71°07' E 025°50'0 0.0
2017-Nov-10 04:25N 71°07' E 025°50'0 0.0
2017-Nov-10 03:58N 71°07' E 025°50'0 0.0
2017-Nov-10 03:28N 71°07' E 025°50'0 0.0
2017-Nov-10 02:58N 71°07' E 025°50'0 0.0
2017-Nov-10 02:28N 71°07' E 025°50'0 0.0
2017-Nov-10 01:58N 71°07' E 025°50'0 0.0
2017-Nov-10 01:28N 71°07' E 025°50'0 0.0
2017-Nov-10 00:58N 71°07' E 025°50'0 0.0
2017-Nov-10 00:28N 71°07' E 025°50'0 0.0
2017-Nov-09 23:58N 71°07' E 025°50'0 0.0
2017-Nov-09 23:28N 71°07' E 025°50'0 0.0
2017-Nov-09 22:58N 71°07' E 025°50'0 0.0
2017-Nov-09 22:28N 71°07' E 025°50'0 0.0
2017-Nov-09 21:58N 71°07' E 025°50'0 0.0
2017-Nov-09 21:25N 71°07' E 025°50'0 0.0
2017-Nov-09 20:58N 71°07' E 025°50'0 0.0
2017-Nov-09 20:28N 71°07' E 025°50'0 0.0
2017-Nov-09 19:58N 71°07' E 025°50'0 0.0
2017-Nov-09 19:28N 71°07' E 025°50'0 0.0
2017-Nov-09 18:58N 71°07' E 025°50'0 0.0
2017-Nov-09 18:28N 71°07' E 025°50'0 0.0
2017-Nov-09 17:58N 71°07' E 025°50'0 0.0
2017-Nov-09 17:28N 71°07' E 025°50'0 0.0
2017-Nov-09 16:58N 71°07' E 025°50'0 0.0
2017-Nov-09 16:28N 71°07' E 025°50'0 0.0
2017-Nov-09 15:55N 71°07' E 025°50'0 0.0
2017-Nov-09 15:28N 71°07' E 025°50'0 0.0
2017-Nov-09 14:58N 71°07' E 025°50'1 2.2
2017-Nov-09 14:30N 71°07' E 025°52'3 6.1
2017-Nov-09 14:00N 71°09' E 026°01'3 6.0
2017-Nov-09 13:29N 71°05' E 026°01'4 7.1
2017-Nov-09 12:59N 71°03' E 025°54'0 0.0
2017-Nov-09 12:29N 71°03' E 025°54'3 7.0
2017-Nov-09 12:00N 71°05' E 026°01'3 6.1
2017-Nov-09 11:30N 71°08' E 026°01'4 7.1
2017-Nov-09 11:00N 71°11' E 025°53'0 0.8
2017-Nov-09 10:30N 71°11' E 025°52'2 4.2
2017-Nov-09 10:00N 71°11' E 025°58'2 4.3
2017-Nov-09 09:30N 71°10' E 026°04'0 0.6
2017-Nov-09 09:00N 71°10' E 026°03'0 0.3
2017-Nov-09 08:29N 71°09' E 026°03'0 0.1
2017-Nov-09 07:59N 71°09' E 026°03'0 0.3
2017-Nov-09 07:30N 71°09' E 026°02'0 0.3
2017-Nov-09 07:00N 71°10' E 026°03'2 3.9
2017-Nov-09 06:30N 71°10' E 025°57'2 3.3
2017-Nov-09 06:00N 71°11' E 025°52'3 6.5
2017-Nov-09 05:30N 71°07' E 025°52'1 2.0
2017-Nov-09 04:59N 71°07' E 025°50'0 0.0
2017-Nov-09 04:29N 71°07' E 025°50'0 0.0
2017-Nov-09 03:59N 71°07' E 025°50'0 0.0
2017-Nov-09 03:26N 71°07' E 025°50'0 0.0
2017-Nov-09 02:59N 71°07' E 025°50'0 0.0
2017-Nov-09 02:29N 71°07' E 025°50'0 0.0
2017-Nov-09 01:59N 71°07' E 025°50'0 0.0
2017-Nov-09 01:29N 71°07' E 025°50'0 0.0
2017-Nov-09 00:59N 71°07' E 025°50'0 0.0
2017-Nov-09 00:26N 71°07' E 025°50'0 0.0
2017-Nov-08 23:59N 71°07' E 025°50'0 0.0
2017-Nov-08 23:29N 71°07' E 025°50'0 0.0
2017-Nov-08 22:56N 71°07' E 025°50'0 0.0
2017-Nov-08 22:26N 71°07' E 025°50'0 0.0
2017-Nov-08 21:59N 71°07' E 025°50'0 0.0
2017-Nov-08 21:29N 71°07' E 025°50'0 0.0
2017-Nov-08 20:59N 71°07' E 025°50'0 0.0
2017-Nov-08 20:29N 71°07' E 025°50'0 0.0
2017-Nov-08 19:59N 71°07' E 025°50'0 0.0
2017-Nov-08 19:26N 71°07' E 025°50'0 0.0
2017-Nov-08 18:59N 71°07' E 025°50'0 0.0
2017-Nov-08 18:29N 71°07' E 025°50'0 0.0
2017-Nov-08 17:59N 71°07' E 025°50'0 0.0
2017-Nov-08 17:29N 71°07' E 025°50'0 0.0
2017-Nov-08 16:59N 71°07' E 025°50'0 0.0
2017-Nov-08 16:29N 71°07' E 025°50'0 0.0
2017-Nov-08 15:59N 71°07' E 025°50'0 0.0
2017-Nov-08 15:29N 71°07' E 025°50'0 0.0
2017-Nov-08 14:56N 71°07' E 025°50'0 0.0
2017-Nov-08 14:29N 71°07' E 025°50'0 0.0
2017-Nov-08 13:44N 71°07' E 025°50'0 0.0
2017-Nov-08 12:32N 71°07' E 025°50'0 0.0
2017-Nov-08 12:31N 71°07' E 025°50'3 6.4
2017-Nov-08 12:00N 71°09' E 025°57'1 2.2
2017-Nov-08 11:29N 71°09' E 026°00'3 4.6
2017-Nov-08 10:49N 71°11' E 025°52'1 0.3
2017-Nov-08 09:05N 71°11' E 025°53'0 0.4
2017-Nov-08 09:00N 71°11' E 025°53'0 0.3
2017-Nov-08 08:30N 71°11' E 025°54'0 0.2
2017-Nov-08 08:00N 71°11' E 025°54'0 0.1
2017-Nov-08 07:30N 71°11' E 025°54'3 5.0
2017-Nov-08 06:59N 71°08' E 025°53'2 3.5
2017-Nov-08 06:29N 71°07' E 025°50'0 0.0
2017-Nov-08 05:59N 71°07' E 025°50'0 0.0
2017-Nov-08 05:29N 71°07' E 025°50'0 0.0
2017-Nov-08 04:59N 71°07' E 025°50'0 0.0
2017-Nov-08 04:29N 71°07' E 025°50'0 0.0
2017-Nov-08 03:59N 71°07' E 025°50'0 0.0
2017-Nov-08 03:29N 71°07' E 025°50'0 0.0
2017-Nov-08 02:59N 71°07' E 025°50'0 0.0
2017-Nov-08 02:29N 71°07' E 025°50'0 0.0
2017-Nov-08 01:56N 71°07' E 025°50'0 0.0
2017-Nov-08 01:29N 71°07' E 025°50'0 0.0
2017-Nov-08 00:59N 71°07' E 025°50'0 0.0
2017-Nov-08 00:29N 71°07' E 025°50'1 0.6
2017-Nov-07 22:40N 71°07' E 025°52'1 7.2
2017-Nov-07 22:30N 71°09' E 025°53'2 4.1
2017-Nov-07 22:00N 71°11' E 025°53'2 4.8
2017-Nov-07 21:30N 71°10' E 026°00'1 2.0
2017-Nov-07 21:00N 71°09' E 026°02'0 0.2
2017-Nov-07 20:29N 71°09' E 026°02'0 0.0
2017-Nov-07 20:00N 71°09' E 026°02'0 0.2
2017-Nov-07 19:30N 71°09' E 026°02'2 3.1
2017-Nov-07 19:00N 71°09' E 025°58'3 6.3
2017-Nov-07 18:30N 71°07' E 025°50'0 0.0
2017-Nov-07 18:00N 71°07' E 025°50'0 0.0
2017-Nov-07 17:28N 71°07' E 025°50'0 0.2
2017-Nov-07 16:59N 71°07' E 025°50'0 0.0
2017-Nov-07 16:29N 71°07' E 025°50'0 0.0
2017-Nov-07 15:59N 71°07' E 025°50'0 0.0
2017-Nov-07 15:29N 71°07' E 025°50'0 0.0
2017-Nov-07 14:59N 71°07' E 025°50'0 0.0
2017-Nov-07 14:29N 71°07' E 025°50'0 0.0
2017-Nov-07 13:59N 71°07' E 025°50'0 0.0
2017-Nov-07 13:29N 71°07' E 025°50'0 0.0
2017-Nov-07 12:59N 71°07' E 025°50'0 0.0
2017-Nov-07 12:29N 71°07' E 025°50'0 0.0
2017-Nov-07 11:59N 71°07' E 025°50'0 0.0
2017-Nov-07 11:29N 71°07' E 025°50'0 0.0
2017-Nov-07 10:59N 71°07' E 025°50'0 0.0
2017-Nov-07 10:29N 71°07' E 025°50'0 0.0
2017-Nov-07 09:59N 71°07' E 025°50'0 0.0
2017-Nov-07 09:29N 71°07' E 025°50'0 0.0
2017-Nov-07 08:59N 71°07' E 025°50'0 0.0
2017-Nov-07 08:29N 71°07' E 025°50'0 0.0
2017-Nov-07 07:59N 71°07' E 025°50'0 0.0
2017-Nov-07 07:29N 71°07' E 025°50'0 0.0
2017-Nov-07 06:56N 71°07' E 025°50'0 0.0
2017-Nov-07 06:29N 71°07' E 025°50'0 0.0
2017-Nov-07 05:59N 71°07' E 025°50'0 0.0
2017-Nov-07 05:29N 71°07' E 025°50'0 0.0
2017-Nov-07 04:59N 71°07' E 025°50'0 0.0
2017-Nov-07 04:29N 71°07' E 025°50'0 0.0
2017-Nov-07 03:59N 71°07' E 025°50'0 0.0
2017-Nov-07 03:29N 71°07' E 025°50'0 0.0
2017-Nov-07 02:59N 71°07' E 025°50'0 0.0
2017-Nov-07 02:29N 71°07' E 025°50'0 0.0
2017-Nov-07 01:59N 71°07' E 025°50'0 0.0
2017-Nov-07 01:29N 71°07' E 025°50'0 0.0
2017-Nov-07 00:59N 71°07' E 025°50'0 0.0
2017-Nov-07 00:29N 71°07' E 025°50'0 0.0
2017-Nov-06 23:59N 71°07' E 025°50'0 0.0
2017-Nov-06 23:29N 71°07' E 025°50'0 0.0
2017-Nov-06 22:56N 71°07' E 025°50'0 0.0
2017-Nov-06 22:26N 71°07' E 025°50'0 0.0
2017-Nov-06 21:59N 71°07' E 025°50'0 0.0
2017-Nov-06 21:29N 71°07' E 025°50'0 0.0
2017-Nov-06 20:59N 71°07' E 025°50'0 0.0
2017-Nov-06 20:29N 71°07' E 025°50'  

Dump ship's entire track history